メインページ
METAR-TAF:

METAR-TAF

空港 :

クマック, ニューカレドニア

緯度: 20-34S, 経度: 164-17E, 海抜: 23m

METAR: 見つかりません

時間: 16:20 (05:20 UTC)

予報

当レポートは6時間20分前の23:00(UTC)に作成
予報は20日の 00時(UTC)から 20日の 24時(UTC)まで有効
南/南西の風 12kt
視程10km以上
高度3000ftの雲はほとんどない
高度4000ftの雲は散在している

TAF: NWWK 192300Z 2000/2024 20012KT 9999 FEW030 SCT040

4,000以上の空港の気象観測と天気予報(METAR報とTAF報)

利用可能な観測所は地図上に黄色い丸と赤い丸で示す。

丸の上にカーソルを重ねると観測所名を参照できる。

次にクリックすると気象観測と天気予報を参照できる。

マップの切り替え:黒色「×」印の緑ボタンをクリックして拡大、「-」印の緑ボタンをクリックして縮小、緑色の三角印をクリックして隣りの地図に切り替え


METAR-TAF: